<?xml version="1.0" encoding="UTF-8"?>
<gpx version="1.1" creator="2bulu-scraper" xmlns="http://www.topografix.com/GPX/1/1">
  <metadata><name>自贡荣县</name><desc>source: 2bulu.com trackId=80140663; exported 2026-09-01T14:59:39.514Z</desc>
    <bounds minlat="29.5547409" minlon="104.2472427" maxlat="29.5818904" maxlon="104.2769546"/>
    <link href="https://www.2bulu.com/track/t-oLUCdR8XSbDp%252FR2KBg5Tzw%253D%253D.htm"><text>2bulu 源页面</text></link>
  </metadata>
  <wpt lat="29.5549584" lon="104.2758852"><ele>422</ele><name>桥上拍摄，上往下，护岸
        </name></wpt>
  <wpt lat="29.5558429" lon="104.2758591"><ele>418</ele><name>碎石土
        </name></wpt>
  <wpt lat="29.5558429" lon="104.2758591"><ele>418</ele><name>粗粒土
        </name></wpt>
  <wpt lat="29.5560334" lon="104.2758306"><ele>414</ele><name>
        </name></wpt>
  <wpt lat="29.5563186" lon="104.27575"><ele>413</ele><name>基岩岸坡，10米，左岸
        </name></wpt>
  <wpt lat="29.5564563" lon="104.275897"><ele>414</ele><name>沟底碎石土
        </name></wpt>
  <wpt lat="29.5565332" lon="104.275958"><ele>412</ele><name>支沟沟底碎石土
        </name></wpt>
  <wpt lat="29.5566227" lon="104.2759859"><ele>412</ele><name>汇口处下游主沟右岸40米砂岩
        </name></wpt>
  <wpt lat="29.5566227" lon="104.2759859"><ele>412</ele><name>汇口处主沟上网下
        </name></wpt>
  <wpt lat="29.5563984" lon="104.2758768"><ele>416</ele><name>岩石崩塌
        </name></wpt>
  <wpt lat="29.5566856" lon="104.2737641"><ele>409</ele><name>岸坡垮塌，长3米2-3方
        </name></wpt>
  <wpt lat="29.5567863" lon="104.2741373"><ele>404</ele><name>河床粗粒土，岸坡粉粘土
        </name></wpt>
  <wpt lat="29.5567863" lon="104.2741373"><ele>404</ele><name>下网上拍
        </name></wpt>
  <wpt lat="29.5565892" lon="104.2736406"><ele>410</ele><name>上网下。左右侧岸坡垮塌，小型
        </name></wpt>
  <wpt lat="29.5566022" lon="104.2736642"><ele>410</ele><name>沟床粗粒土，岸坡粉粘土
        </name></wpt>
  <wpt lat="29.5792847" lon="104.2598528"><ele>423</ele><name>支沟下游左岸，土质，粉粘土
        </name></wpt>
  <wpt lat="29.5792847" lon="104.2598528"><ele>423</ele><name>zk1
        </name></wpt>
  <wpt lat="29.5801192" lon="104.259598"><ele>426</ele><name>左岸下游接基岩岸坡
        </name></wpt>
  <wpt lat="29.5804674" lon="104.259477"><ele>422</ele><name>左岸网上，土，粉粘
        </name></wpt>
  <wpt lat="29.581183" lon="104.2591957"><ele>420</ele><name>网上，粉粘土
        </name></wpt>
  <wpt lat="29.5818904" lon="104.2587603"><ele>420</ele><name>左岸起点，粉粘土
        </name></wpt>
  <wpt lat="29.5818904" lon="104.2587603"><ele>420</ele><name>右岸起点，粉粘
        </name></wpt>
  <wpt lat="29.5813457" lon="104.2591373"><ele>421</ele><name>右岸，粉粘
        </name></wpt>
  <wpt lat="29.5804097" lon="104.2595354"><ele>423</ele><name>右岸岸坡垮塌，粉粘
        </name></wpt>
  <wpt lat="29.5796454" lon="104.2596649"><ele>424</ele><name>右岸
        </name></wpt>
  <wpt lat="29.5790121" lon="104.2599163"><ele>422</ele><name>支沟汇口，主沟左岸上游30-40米基岩岸坡
        </name></wpt>
  <wpt lat="29.5786389" lon="104.2598959"><ele>422</ele><name>右岸，粉粘，岸坡垮塌垮塌
        </name></wpt>
  <wpt lat="29.5787414" lon="104.260098"><ele>423</ele><name>沙石料场
        </name></wpt>
  <wpt lat="29.5787414" lon="104.260098"><ele>423</ele><name>
        </name></wpt>
  <wpt lat="29.578775" lon="104.2602663"><ele>415</ele><name>砾石
        </name></wpt>
  <wpt lat="29.5786932" lon="104.260614"><ele>417</ele><name>
        </name></wpt>
  <wpt lat="29.5776719" lon="104.2567345"><ele>422</ele><name>左岸，粉粘
        </name></wpt>
  <wpt lat="29.5776719" lon="104.2567345"><ele>422</ele><name>左岸终点
        </name></wpt>
  <wpt lat="29.5778811" lon="104.2566779"><ele>421</ele><name>终点往上，右岸，粉粘
        </name></wpt>
  <wpt lat="29.5778811" lon="104.2566779"><ele>421</ele><name>桥上往上拍
        </name></wpt>
  <wpt lat="29.5778811" lon="104.2566779"><ele>421</ele><name>左上游接基岩岸坡
        </name></wpt>
  <wpt lat="29.5777988" lon="104.2486239"><ele>422</ele><name>左岸上游全段基岩，巨石，直径6米以上
        </name></wpt>
  <wpt lat="29.5777988" lon="104.2486239"><ele>422</ele><name>左岸下游
        </name></wpt>
  <wpt lat="29.5776274" lon="104.2481551"><ele>422</ele><name>上游库区
        </name></wpt>
  <wpt lat="29.5780953" lon="104.2476473"><ele>418</ele><name>上游左岸
        </name></wpt>
  <wpt lat="29.5785202" lon="104.2472901"><ele>417</ele><name>
        </name></wpt>
  <trk><name>自贡荣县</name>
      <trkseg>
        <trkpt lat="29.5549584" lon="104.2758852"><ele>421.94</ele><time>2026-03-07T18:14:49.000Z</time></trkpt>
        <trkpt lat="29.5549285" lon="104.2759712"><ele>421.94</ele><time>2026-03-07T18:15:47.000Z</time></trkpt>
        <trkpt lat="29.554886" lon="104.276085"><ele>419.7</ele><time>2026-03-07T18:15:57.000Z</time></trkpt>
        <trkpt lat="29.5548478" lon="104.2762001"><ele>421.31</ele><time>2026-03-07T18:16:05.000Z</time></trkpt>
        <trkpt lat="29.5548317" lon="104.27632"><ele>423.35</ele><time>2026-03-07T18:16:13.000Z</time></trkpt>
        <trkpt lat="29.5548413" lon="104.2764473"><ele>423.42</ele><time>2026-03-07T18:16:21.000Z</time></trkpt>
        <trkpt lat="29.5548775" lon="104.2765745"><ele>423.77</ele><time>2026-03-07T18:16:29.000Z</time></trkpt>
        <trkpt lat="29.5549259" lon="104.2766783"><ele>424.43</ele><time>2026-03-07T18:16:35.000Z</time></trkpt>
        <trkpt lat="29.5549961" lon="104.2767846"><ele>425.39</ele><time>2026-03-07T18:16:43.000Z</time></trkpt>
        <trkpt lat="29.5550667" lon="104.2768646"><ele>425.81</ele><time>2026-03-07T18:16:49.000Z</time></trkpt>
        <trkpt lat="29.5551535" lon="104.2769313"><ele>426.53</ele><time>2026-03-07T18:16:57.000Z</time></trkpt>
        <trkpt lat="29.5552656" lon="104.2769255"><ele>427.19</ele><time>2026-03-07T18:17:05.000Z</time></trkpt>
        <trkpt lat="29.5553563" lon="104.276873"><ele>427.46</ele><time>2026-03-07T18:17:11.000Z</time></trkpt>
        <trkpt lat="29.5554271" lon="104.2767682"><ele>427.61</ele><time>2026-03-07T18:17:19.000Z</time></trkpt>
        <trkpt lat="29.5554784" lon="104.2766404"><ele>427.21</ele><time>2026-03-07T18:17:27.000Z</time></trkpt>
        <trkpt lat="29.555528" lon="104.2765129"><ele>426.45</ele><time>2026-03-07T18:17:35.000Z</time></trkpt>
        <trkpt lat="29.5555656" lon="104.2763914"><ele>425.82</ele><time>2026-03-07T18:17:43.000Z</time></trkpt>
        <trkpt lat="29.5556121" lon="104.2762836"><ele>425.67</ele><time>2026-03-07T18:17:51.000Z</time></trkpt>
        <trkpt lat="29.5556906" lon="104.2761973"><ele>425.43</ele><time>2026-03-07T18:17:59.000Z</time></trkpt>
        <trkpt lat="29.5557749" lon="104.2761387"><ele>425.25</ele><time>2026-03-07T18:18:09.000Z</time></trkpt>
        <trkpt lat="29.5558563" lon="104.2760806"><ele>425.09</ele><time>2026-03-07T18:18:17.000Z</time></trkpt>
        <trkpt lat="29.5558675" lon="104.276062"><ele>425.41</ele><time>2026-03-07T18:18:19.000Z</time></trkpt>
        <trkpt lat="29.5558417" lon="104.2759733"><ele>425.17</ele><time>2026-03-07T18:18:37.000Z</time></trkpt>
        <trkpt lat="29.5558343" lon="104.2759404"><ele>424.64</ele><time>2026-03-07T18:18:43.000Z</time></trkpt>
        <trkpt lat="29.5558429" lon="104.2758591"><ele>424.01</ele><time>2026-03-07T18:19:29.000Z</time></trkpt>
        <trkpt lat="29.5559517" lon="104.2758863"><ele>421.23</ele><time>2026-03-07T18:21:39.000Z</time></trkpt>
        <trkpt lat="29.5560334" lon="104.2758306"><ele>418.86</ele><time>2026-03-07T18:21:49.000Z</time></trkpt>
        <trkpt lat="29.5561329" lon="104.2758125"><ele>416.8</ele><time>2026-03-07T18:22:29.000Z</time></trkpt>
        <trkpt lat="29.5562229" lon="104.2757793"><ele>415.83</ele><time>2026-03-07T18:22:43.000Z</time></trkpt>
        <trkpt lat="29.5563186" lon="104.27575"><ele>415.36</ele><time>2026-03-07T18:22:55.000Z</time></trkpt>
        <trkpt lat="29.5564192" lon="104.2757261"><ele>414.54</ele><time>2026-03-07T18:23:39.000Z</time></trkpt>
        <trkpt lat="29.556387" lon="104.2758281"><ele>413.76</ele><time>2026-03-07T18:25:19.000Z</time></trkpt>
        <trkpt lat="29.5564563" lon="104.275897"><ele>413.07</ele><time>2026-03-07T18:25:35.000Z</time></trkpt>
        <trkpt lat="29.5565332" lon="104.275958"><ele>413.31</ele><time>2026-03-07T18:26:21.000Z</time></trkpt>
        <trkpt lat="29.5566227" lon="104.2759859"><ele>412.73</ele><time>2026-03-07T18:26:45.000Z</time></trkpt>
        <trkpt lat="29.5565432" lon="104.2759145"><ele>412.47</ele><time>2026-03-07T18:28:45.000Z</time></trkpt>
        <trkpt lat="29.5564439" lon="104.2758915"><ele>413.35</ele><time>2026-03-07T18:28:57.000Z</time></trkpt>
        <trkpt lat="29.5563984" lon="104.2758768"><ele>413.46</ele><time>2026-03-07T18:29:03.000Z</time></trkpt>
        <trkpt lat="29.5563112" lon="104.2758556"><ele>414.43</ele><time>2026-03-07T18:29:45.000Z</time></trkpt>
        <trkpt lat="29.5562749" lon="104.2759348"><ele>414.19</ele><time>2026-03-07T18:29:55.000Z</time></trkpt>
        <trkpt lat="29.5563137" lon="104.2760427"><ele>414.44</ele><time>2026-03-07T18:30:09.000Z</time></trkpt>
        <trkpt lat="29.5563283" lon="104.2760988"><ele>417.44</ele><time>2026-03-07T18:30:13.000Z</time></trkpt>
        <trkpt lat="29.5562669" lon="104.2760638"><ele>419.71</ele><time>2026-03-07T18:30:21.000Z</time></trkpt>
        <trkpt lat="29.5561654" lon="104.2760354"><ele>422.72</ele><time>2026-03-07T18:30:37.000Z</time></trkpt>
        <trkpt lat="29.5560565" lon="104.2760464"><ele>423.81</ele><time>2026-03-07T18:30:45.000Z</time></trkpt>
        <trkpt lat="29.5559453" lon="104.2760815"><ele>424.43</ele><time>2026-03-07T18:30:53.000Z</time></trkpt>
        <trkpt lat="29.5558359" lon="104.2761261"><ele>424.95</ele><time>2026-03-07T18:31:01.000Z</time></trkpt>
        <trkpt lat="29.5557336" lon="104.2761782"><ele>425.29</ele><time>2026-03-07T18:31:09.000Z</time></trkpt>
        <trkpt lat="29.5556419" lon="104.2762502"><ele>426.77</ele><time>2026-03-07T18:31:19.000Z</time></trkpt>
        <trkpt lat="29.5555484" lon="104.2762724"><ele>427.05</ele><time>2026-03-07T18:31:29.000Z</time></trkpt>
        <trkpt lat="29.5555151" lon="104.2762738"><ele>428.15</ele><time>2026-03-07T18:31:33.000Z</time></trkpt>
        <trkpt lat="29.5555028" lon="104.2763523"><ele>429.15</ele><time>2026-03-07T18:31:49.000Z</time></trkpt>
        <trkpt lat="29.5554899" lon="104.2764588"><ele>428.2</ele><time>2026-03-07T18:31:57.000Z</time></trkpt>
        <trkpt lat="29.555476" lon="104.2765801"><ele>427.05</ele><time>2026-03-07T18:32:05.000Z</time></trkpt>
        <trkpt lat="29.5554561" lon="104.2767029"><ele>426.36</ele><time>2026-03-07T18:32:13.000Z</time></trkpt>
        <trkpt lat="29.555407" lon="104.2768143"><ele>425.25</ele><time>2026-03-07T18:32:21.000Z</time></trkpt>
        <trkpt lat="29.5553239" lon="104.2769117"><ele>424.65</ele><time>2026-03-07T18:32:29.000Z</time></trkpt>
        <trkpt lat="29.5552289" lon="104.2769546"><ele>425.9</ele><time>2026-03-07T18:32:35.000Z</time></trkpt>
        <trkpt lat="29.5551315" lon="104.2769464"><ele>426.75</ele><time>2026-03-07T18:32:41.000Z</time></trkpt>
        <trkpt lat="29.5550251" lon="104.2768911"><ele>427.47</ele><time>2026-03-07T18:32:49.000Z</time></trkpt>
        <trkpt lat="29.554934" lon="104.2768023"><ele>427.62</ele><time>2026-03-07T18:32:57.000Z</time></trkpt>
        <trkpt lat="29.5548621" lon="104.2766992"><ele>428.26</ele><time>2026-03-07T18:33:05.000Z</time></trkpt>
        <trkpt lat="29.5548111" lon="104.2765866"><ele>429.08</ele><time>2026-03-07T18:33:13.000Z</time></trkpt>
        <trkpt lat="29.5547806" lon="104.2764567"><ele>430.02</ele><time>2026-03-07T18:33:21.000Z</time></trkpt>
        <trkpt lat="29.5547631" lon="104.2763217"><ele>432.26</ele><time>2026-03-07T18:33:29.000Z</time></trkpt>
        <trkpt lat="29.5547409" lon="104.2761983"><ele>432.5</ele><time>2026-03-07T18:33:37.000Z</time></trkpt>
        <trkpt lat="29.5547487" lon="104.276079"><ele>430.92</ele><time>2026-03-07T18:33:45.000Z</time></trkpt>
        <trkpt lat="29.554746" lon="104.2760208"><ele>428.79</ele><time>2026-03-07T18:33:51.000Z</time></trkpt>
        <trkpt lat="29.5547923" lon="104.2761017"><ele>428.11</ele><time>2026-03-07T18:34:26.000Z</time></trkpt>
        <trkpt lat="29.5547986" lon="104.2762298"><ele>427.37</ele><time>2026-03-07T18:34:28.000Z</time></trkpt>
        <trkpt lat="29.5548013" lon="104.2763771"><ele>426.83</ele><time>2026-03-07T18:34:30.000Z</time></trkpt>
        <trkpt lat="29.5548252" lon="104.2765246"><ele>426.75</ele><time>2026-03-07T18:34:32.000Z</time></trkpt>
        <trkpt lat="29.5548715" lon="104.276661"><ele>426.69</ele><time>2026-03-07T18:34:34.000Z</time></trkpt>
        <trkpt lat="29.5549353" lon="104.2767716"><ele>426.69</ele><time>2026-03-07T18:34:36.000Z</time></trkpt>
        <trkpt lat="29.5550147" lon="104.2768662"><ele>426.73</ele><time>2026-03-07T18:34:38.000Z</time></trkpt>
        <trkpt lat="29.5551086" lon="104.2769308"><ele>426.63</ele><time>2026-03-07T18:34:40.000Z</time></trkpt>
        <trkpt lat="29.5552111" lon="104.276947"><ele>426.74</ele><time>2026-03-07T18:34:42.000Z</time></trkpt>
        <trkpt lat="29.5553272" lon="104.2769132"><ele>425.67</ele><time>2026-03-07T18:34:44.000Z</time></trkpt>
        <trkpt lat="29.5554326" lon="104.2768226"><ele>424.98</ele><time>2026-03-07T18:34:46.000Z</time></trkpt>
        <trkpt lat="29.5554999" lon="104.2766919"><ele>425</ele><time>2026-03-07T18:34:48.000Z</time></trkpt>
        <trkpt lat="29.5555572" lon="104.2765421"><ele>424.89</ele><time>2026-03-07T18:34:50.000Z</time></trkpt>
        <trkpt lat="29.5556159" lon="104.2763913"><ele>424.77</ele><time>2026-03-07T18:34:52.000Z</time></trkpt>
        <trkpt lat="29.5556947" lon="104.2762746"><ele>424.7</ele><time>2026-03-07T18:34:54.000Z</time></trkpt>
        <trkpt lat="29.5558094" lon="104.2761978"><ele>424.42</ele><time>2026-03-07T18:34:56.000Z</time></trkpt>
        <trkpt lat="29.5559391" lon="104.2761339"><ele>424.56</ele><time>2026-03-07T18:34:58.000Z</time></trkpt>
        <trkpt lat="29.5560816" lon="104.2761019"><ele>424.9</ele><time>2026-03-07T18:35:00.000Z</time></trkpt>
        <trkpt lat="29.5562403" lon="104.276105"><ele>425.33</ele><time>2026-03-07T18:35:02.000Z</time></trkpt>
        <trkpt lat="29.556406" lon="104.276129"><ele>425.22</ele><time>2026-03-07T18:35:04.000Z</time></trkpt>
        <trkpt lat="29.5565689" lon="104.2761627"><ele>425.53</ele><time>2026-03-07T18:35:06.000Z</time></trkpt>
        <trkpt lat="29.556721" lon="104.2761947"><ele>425.86</ele><time>2026-03-07T18:35:08.000Z</time></trkpt>
        <trkpt lat="29.5568645" lon="104.2762465"><ele>426.18</ele><time>2026-03-07T18:35:10.000Z</time></trkpt>
        <trkpt lat="29.5569879" lon="104.2763297"><ele>426.31</ele><time>2026-03-07T18:35:12.000Z</time></trkpt>
        <trkpt lat="29.5570864" lon="104.2764305"><ele>426.48</ele><time>2026-03-07T18:35:14.000Z</time></trkpt>
        <trkpt lat="29.5571651" lon="104.2764993"><ele>425.69</ele><time>2026-03-07T18:35:16.000Z</time></trkpt>
        <trkpt lat="29.5572838" lon="104.2764393"><ele>425.24</ele><time>2026-03-07T18:35:20.000Z</time></trkpt>
        <trkpt lat="29.5573681" lon="104.2763161"><ele>424.16</ele><time>2026-03-07T18:35:22.000Z</time></trkpt>
        <trkpt lat="29.5574053" lon="104.2761592"><ele>423.73</ele><time>2026-03-07T18:35:24.000Z</time></trkpt>
        <trkpt lat="29.5573878" lon="104.2759933"><ele>423.32</ele><time>2026-03-07T18:35:26.000Z</time></trkpt>
        <trkpt lat="29.5573258" lon="104.275841"><ele>423.38</ele><time>2026-03-07T18:35:28.000Z</time></trkpt>
        <trkpt lat="29.5572446" lon="104.2756938"><ele>423.78</ele><time>2026-03-07T18:35:30.000Z</time></trkpt>
        <trkpt lat="29.5571685" lon="104.2755456"><ele>424.56</ele><time>2026-03-07T18:35:32.000Z</time></trkpt>
        <trkpt lat="29.5571269" lon="104.2753729"><ele>425.58</ele><time>2026-03-07T18:35:34.000Z</time></trkpt>
        <trkpt lat="29.5571241" lon="104.2751703"><ele>425.85</ele><time>2026-03-07T18:35:36.000Z</time></trkpt>
        <trkpt lat="29.5571345" lon="104.2749421"><ele>425.08</ele><time>2026-03-07T18:35:38.000Z</time></trkpt>
        <trkpt lat="29.5571364" lon="104.2747194"><ele>424.32</ele><time>2026-03-07T18:35:40.000Z</time></trkpt>
        <trkpt lat="29.5570844" lon="104.2745068"><ele>423.78</ele><time>2026-03-07T18:35:42.000Z</time></trkpt>
        <trkpt lat="29.5570174" lon="104.2743078"><ele>422.99</ele><time>2026-03-07T18:35:44.000Z</time></trkpt>
        <trkpt lat="29.5569449" lon="104.2741294"><ele>422.56</ele><time>2026-03-07T18:35:46.000Z</time></trkpt>
        <trkpt lat="29.5568874" lon="104.2739809"><ele>422.2</ele><time>2026-03-07T18:35:48.000Z</time></trkpt>
        <trkpt lat="29.5568442" lon="104.2738764"><ele>421.08</ele><time>2026-03-07T18:35:50.000Z</time></trkpt>
        <trkpt lat="29.5568513" lon="104.273762"><ele>420.43</ele><time>2026-03-07T18:35:54.000Z</time></trkpt>
        <trkpt lat="29.5568609" lon="104.2737279"><ele>419.11</ele><time>2026-03-07T18:35:56.000Z</time></trkpt>
        <trkpt lat="29.5567841" lon="104.2737358"><ele>418.47</ele><time>2026-03-07T18:36:12.000Z</time></trkpt>
        <trkpt lat="29.55675" lon="104.2737216"><ele>417.86</ele><time>2026-03-07T18:36:16.000Z</time></trkpt>
        <trkpt lat="29.5566856" lon="104.2737641"><ele>416.57</ele><time>2026-03-07T18:36:54.000Z</time></trkpt>
        <trkpt lat="29.5566715" lon="104.2738767"><ele>413.45</ele><time>2026-03-07T18:37:46.000Z</time></trkpt>
        <trkpt lat="29.5566966" lon="104.2739522"><ele>411.43</ele><time>2026-03-07T18:37:52.000Z</time></trkpt>
        <trkpt lat="29.5567259" lon="104.2740528"><ele>407.78</ele><time>2026-03-07T18:38:00.000Z</time></trkpt>
        <trkpt lat="29.5567863" lon="104.2741373"><ele>405.52</ele><time>2026-03-07T18:38:10.000Z</time></trkpt>
        <trkpt lat="29.5567699" lon="104.2740908"><ele>404.76</ele><time>2026-03-07T18:39:04.000Z</time></trkpt>
        <trkpt lat="29.5567332" lon="104.2739737"><ele>406.61</ele><time>2026-03-07T18:39:12.000Z</time></trkpt>
        <trkpt lat="29.5566738" lon="104.2738616"><ele>407.68</ele><time>2026-03-07T18:39:20.000Z</time></trkpt>
        <trkpt lat="29.5566398" lon="104.2737402"><ele>408.3</ele><time>2026-03-07T18:39:28.000Z</time></trkpt>
        <trkpt lat="29.5565892" lon="104.2736406"><ele>409.04</ele><time>2026-03-07T18:39:38.000Z</time></trkpt>
        <trkpt lat="29.5566525" lon="104.2737094"><ele>409.52</ele><time>2026-03-07T18:44:01.000Z</time></trkpt>
        <trkpt lat="29.5567021" lon="104.2736211"><ele>409.4</ele><time>2026-03-07T18:44:33.000Z</time></trkpt>
        <trkpt lat="29.5567563" lon="104.2736814"><ele>412.2</ele><time>2026-03-07T18:44:43.000Z</time></trkpt>
        <trkpt lat="29.556824" lon="104.2737589"><ele>413.54</ele><time>2026-03-07T18:44:53.000Z</time></trkpt>
        <trkpt lat="29.5568649" lon="104.2737811"><ele>414.51</ele><time>2026-03-07T18:45:01.000Z</time></trkpt>
        <trkpt lat="29.5567672" lon="104.2736212"><ele>414.77</ele><time>2026-03-07T18:46:55.000Z</time></trkpt>
        <trkpt lat="29.5567122" lon="104.2734752"><ele>414.66</ele><time>2026-03-07T18:46:57.000Z</time></trkpt>
        <trkpt lat="29.5566484" lon="104.2733085"><ele>414.61</ele><time>2026-03-07T18:46:59.000Z</time></trkpt>
        <trkpt lat="29.5565871" lon="104.2731372"><ele>414.35</ele><time>2026-03-07T18:47:01.000Z</time></trkpt>
        <trkpt lat="29.5565361" lon="104.2729599"><ele>414.41</ele><time>2026-03-07T18:47:03.000Z</time></trkpt>
        <trkpt lat="29.5565021" lon="104.2727879"><ele>417.02</ele><time>2026-03-07T18:47:05.000Z</time></trkpt>
        <trkpt lat="29.5565261" lon="104.2725997"><ele>416.43</ele><time>2026-03-07T18:47:07.000Z</time></trkpt>
        <trkpt lat="29.5566043" lon="104.2723896"><ele>416.03</ele><time>2026-03-07T18:47:09.000Z</time></trkpt>
        <trkpt lat="29.5566993" lon="104.272183"><ele>415.36</ele><time>2026-03-07T18:47:11.000Z</time></trkpt>
        <trkpt lat="29.5568223" lon="104.2720016"><ele>414.75</ele><time>2026-03-07T18:47:13.000Z</time></trkpt>
        <trkpt lat="29.5569746" lon="104.2718459"><ele>414.71</ele><time>2026-03-07T18:47:15.000Z</time></trkpt>
        <trkpt lat="29.5571402" lon="104.2717359"><ele>414.16</ele><time>2026-03-07T18:47:17.000Z</time></trkpt>
        <trkpt lat="29.5573138" lon="104.271703"><ele>413.86</ele><time>2026-03-07T18:47:19.000Z</time></trkpt>
        <trkpt lat="29.5575022" lon="104.2717146"><ele>413.22</ele><time>2026-03-07T18:47:21.000Z</time></trkpt>
        <trkpt lat="29.5576777" lon="104.2717452"><ele>412.66</ele><time>2026-03-07T18:47:23.000Z</time></trkpt>
        <trkpt lat="29.5578649" lon="104.2717807"><ele>412.43</ele><time>2026-03-07T18:47:25.000Z</time></trkpt>
        <trkpt lat="29.5580679" lon="104.2718111"><ele>412.4</ele><time>2026-03-07T18:47:27.000Z</time></trkpt>
        <trkpt lat="29.5582807" lon="104.2718382"><ele>411.94</ele><time>2026-03-07T18:47:29.000Z</time></trkpt>
        <trkpt lat="29.5584879" lon="104.2718301"><ele>411.54</ele><time>2026-03-07T18:47:31.000Z</time></trkpt>
        <trkpt lat="29.5586841" lon="104.271775"><ele>410.26</ele><time>2026-03-07T18:47:33.000Z</time></trkpt>
        <trkpt lat="29.5588689" lon="104.2716806"><ele>410.6</ele><time>2026-03-07T18:47:35.000Z</time></trkpt>
        <trkpt lat="29.5590347" lon="104.2715742"><ele>410.46</ele><time>2026-03-07T18:47:37.000Z</time></trkpt>
        <trkpt lat="29.5591996" lon="104.2714703"><ele>410.87</ele><time>2026-03-07T18:47:39.000Z</time></trkpt>
        <trkpt lat="29.5593578" lon="104.2713937"><ele>411.35</ele><time>2026-03-07T18:47:41.000Z</time></trkpt>
        <trkpt lat="29.5594993" lon="104.2713794"><ele>410.69</ele><time>2026-03-07T18:47:43.000Z</time></trkpt>
        <trkpt lat="29.5596431" lon="104.2714431"><ele>411.53</ele><time>2026-03-07T18:47:45.000Z</time></trkpt>
        <trkpt lat="29.5598107" lon="104.2715544"><ele>412.23</ele><time>2026-03-07T18:47:47.000Z</time></trkpt>
        <trkpt lat="29.5599976" lon="104.2716843"><ele>412.61</ele><time>2026-03-07T18:47:49.000Z</time></trkpt>
        <trkpt lat="29.5601983" lon="104.2718156"><ele>412.68</ele><time>2026-03-07T18:47:51.000Z</time></trkpt>
        <trkpt lat="29.560402" lon="104.271946"><ele>413.09</ele><time>2026-03-07T18:47:53.000Z</time></trkpt>
        <trkpt lat="29.5606059" lon="104.272063"><ele>413.46</ele><time>2026-03-07T18:47:55.000Z</time></trkpt>
        <trkpt lat="29.5608163" lon="104.2721396"><ele>413.98</ele><time>2026-03-07T18:47:57.000Z</time></trkpt>
        <trkpt lat="29.561033" lon="104.272147"><ele>413.96</ele><time>2026-03-07T18:47:59.000Z</time></trkpt>
        <trkpt lat="29.5612586" lon="104.2720837"><ele>414.16</ele><time>2026-03-07T18:48:01.000Z</time></trkpt>
        <trkpt lat="29.5614742" lon="104.27199"><ele>414.25</ele><time>2026-03-07T18:48:03.000Z</time></trkpt>
        <trkpt lat="29.5616976" lon="104.2718874"><ele>414.65</ele><time>2026-03-07T18:48:05.000Z</time></trkpt>
        <trkpt lat="29.5619205" lon="104.2717972"><ele>415.37</ele><time>2026-03-07T18:48:07.000Z</time></trkpt>
        <trkpt lat="29.5621461" lon="104.2717129"><ele>415.99</ele><time>2026-03-07T18:48:09.000Z</time></trkpt>
        <trkpt lat="29.5623638" lon="104.2716335"><ele>417.22</ele><time>2026-03-07T18:48:11.000Z</time></trkpt>
        <trkpt lat="29.5625746" lon="104.2715458"><ele>418.32</ele><time>2026-03-07T18:48:13.000Z</time></trkpt>
        <trkpt lat="29.5627733" lon="104.2714294"><ele>419.46</ele><time>2026-03-07T18:48:15.000Z</time></trkpt>
        <trkpt lat="29.5629561" lon="104.2712487"><ele>420.88</ele><time>2026-03-07T18:48:17.000Z</time></trkpt>
        <trkpt lat="29.563108" lon="104.271031"><ele>421.72</ele><time>2026-03-07T18:48:19.000Z</time></trkpt>
        <trkpt lat="29.5632484" lon="104.2707839"><ele>422.35</ele><time>2026-03-07T18:48:21.000Z</time></trkpt>
        <trkpt lat="29.5633646" lon="104.2705223"><ele>422.91</ele><time>2026-03-07T18:48:23.000Z</time></trkpt>
        <trkpt lat="29.5634867" lon="104.2702539"><ele>422.95</ele><time>2026-03-07T18:48:25.000Z</time></trkpt>
        <trkpt lat="29.5636333" lon="104.2700015"><ele>422.31</ele><time>2026-03-07T18:48:27.000Z</time></trkpt>
        <trkpt lat="29.5637941" lon="104.2697588"><ele>420.91</ele><time>2026-03-07T18:48:29.000Z</time></trkpt>
        <trkpt lat="29.563942" lon="104.2695403"><ele>419.89</ele><time>2026-03-07T18:48:31.000Z</time></trkpt>
        <trkpt lat="29.5640808" lon="104.2693955"><ele>419.54</ele><time>2026-03-07T18:48:33.000Z</time></trkpt>
        <trkpt lat="29.5642676" lon="104.2693512"><ele>419.83</ele><time>2026-03-07T18:48:35.000Z</time></trkpt>
        <trkpt lat="29.564468" lon="104.2693768"><ele>420.28</ele><time>2026-03-07T18:48:37.000Z</time></trkpt>
        <trkpt lat="29.5646614" lon="104.2694982"><ele>420.61</ele><time>2026-03-07T18:48:39.000Z</time></trkpt>
        <trkpt lat="29.5648524" lon="104.2696168"><ele>420.88</ele><time>2026-03-07T18:48:41.000Z</time></trkpt>
        <trkpt lat="29.5650589" lon="104.2696864"><ele>421.3</ele><time>2026-03-07T18:48:43.000Z</time></trkpt>
        <trkpt lat="29.5652996" lon="104.2697256"><ele>421.57</ele><time>2026-03-07T18:48:45.000Z</time></trkpt>
        <trkpt lat="29.5655728" lon="104.269743"><ele>421.88</ele><time>2026-03-07T18:48:47.000Z</time></trkpt>
        <trkpt lat="29.5658599" lon="104.269759"><ele>422.23</ele><time>2026-03-07T18:48:49.000Z</time></trkpt>
        <trkpt lat="29.5661457" lon="104.2697828"><ele>422.31</ele><time>2026-03-07T18:48:51.000Z</time></trkpt>
        <trkpt lat="29.5664179" lon="104.2698024"><ele>422.34</ele><time>2026-03-07T18:48:53.000Z</time></trkpt>
        <trkpt lat="29.5666991" lon="104.2698549"><ele>420.67</ele><time>2026-03-07T18:48:55.000Z</time></trkpt>
        <trkpt lat="29.5669766" lon="104.2699776"><ele>419.13</ele><time>2026-03-07T18:48:57.000Z</time></trkpt>
        <trkpt lat="29.5672369" lon="104.2701263"><ele>418.75</ele><time>2026-03-07T18:48:59.000Z</time></trkpt>
        <trkpt lat="29.5674574" lon="104.2703295"><ele>418.87</ele><time>2026-03-07T18:49:01.000Z</time></trkpt>
        <trkpt lat="29.5676611" lon="104.2705466"><ele>419.64</ele><time>2026-03-07T18:49:03.000Z</time></trkpt>
        <trkpt lat="29.5678687" lon="104.2707246"><ele>421.03</ele><time>2026-03-07T18:49:05.000Z</time></trkpt>
        <trkpt lat="29.5680899" lon="104.2708369"><ele>422.47</ele><time>2026-03-07T18:49:07.000Z</time></trkpt>
        <trkpt lat="29.5683091" lon="104.2708624"><ele>424.47</ele><time>2026-03-07T18:49:09.000Z</time></trkpt>
        <trkpt lat="29.5685542" lon="104.2708519"><ele>425.65</ele><time>2026-03-07T18:49:11.000Z</time></trkpt>
        <trkpt lat="29.5688216" lon="104.270796"><ele>426.19</ele><time>2026-03-07T18:49:13.000Z</time></trkpt>
        <trkpt lat="29.5690932" lon="104.2707483"><ele>426.63</ele><time>2026-03-07T18:49:15.000Z</time></trkpt>
        <trkpt lat="29.5693707" lon="104.2707291"><ele>427.27</ele><time>2026-03-07T18:49:17.000Z</time></trkpt>
        <trkpt lat="29.5696609" lon="104.2707479"><ele>427.8</ele><time>2026-03-07T18:49:19.000Z</time></trkpt>
        <trkpt lat="29.5699494" lon="104.2708146"><ele>428.55</ele><time>2026-03-07T18:49:21.000Z</time></trkpt>
        <trkpt lat="29.5702187" lon="104.2709167"><ele>428.45</ele><time>2026-03-07T18:49:23.000Z</time></trkpt>
        <trkpt lat="29.5704605" lon="104.2710082"><ele>428.7</ele><time>2026-03-07T18:49:25.000Z</time></trkpt>
        <trkpt lat="29.5706656" lon="104.2710415"><ele>429.18</ele><time>2026-03-07T18:49:27.000Z</time></trkpt>
        <trkpt lat="29.5708188" lon="104.2710177"><ele>429.52</ele><time>2026-03-07T18:49:29.000Z</time></trkpt>
        <trkpt lat="29.5709727" lon="104.2709375"><ele>429.61</ele><time>2026-03-07T18:49:31.000Z</time></trkpt>
        <trkpt lat="29.571144" lon="104.2707937"><ele>429.63</ele><time>2026-03-07T18:49:33.000Z</time></trkpt>
        <trkpt lat="29.5713456" lon="104.2706235"><ele>428.5</ele><time>2026-03-07T18:49:35.000Z</time></trkpt>
        <trkpt lat="29.5715542" lon="104.2704448"><ele>427.22</ele><time>2026-03-07T18:49:37.000Z</time></trkpt>
        <trkpt lat="29.5717662" lon="104.2703024"><ele>426.02</ele><time>2026-03-07T18:49:39.000Z</time></trkpt>
        <trkpt lat="29.5719734" lon="104.2702103"><ele>425.26</ele><time>2026-03-07T18:49:41.000Z</time></trkpt>
        <trkpt lat="29.5721767" lon="104.270141"><ele>424.9</ele><time>2026-03-07T18:49:43.000Z</time></trkpt>
        <trkpt lat="29.5723601" lon="104.270074"><ele>424.41</ele><time>2026-03-07T18:49:45.000Z</time></trkpt>
        <trkpt lat="29.5724998" lon="104.2699964"><ele>424.28</ele><time>2026-03-07T18:49:47.000Z</time></trkpt>
        <trkpt lat="29.5726339" lon="104.2698987"><ele>423.59</ele><time>2026-03-07T18:49:49.000Z</time></trkpt>
        <trkpt lat="29.5727728" lon="104.2697721"><ele>422.58</ele><time>2026-03-07T18:49:51.000Z</time></trkpt>
        <trkpt lat="29.572939" lon="104.2696347"><ele>421.63</ele><time>2026-03-07T18:49:53.000Z</time></trkpt>
        <trkpt lat="29.5731228" lon="104.2694869"><ele>420.99</ele><time>2026-03-07T18:49:55.000Z</time></trkpt>
        <trkpt lat="29.5733235" lon="104.2693215"><ele>420.43</ele><time>2026-03-07T18:49:57.000Z</time></trkpt>
        <trkpt lat="29.5735321" lon="104.2691661"><ele>419.71</ele><time>2026-03-07T18:49:59.000Z</time></trkpt>
        <trkpt lat="29.5737413" lon="104.2690093"><ele>419.59</ele><time>2026-03-07T18:50:01.000Z</time></trkpt>
        <trkpt lat="29.5739443" lon="104.2688609"><ele>419.32</ele><time>2026-03-07T18:50:03.000Z</time></trkpt>
        <trkpt lat="29.5741464" lon="104.2687104"><ele>419.27</ele><time>2026-03-07T18:50:05.000Z</time></trkpt>
        <trkpt lat="29.5743436" lon="104.2685676"><ele>419.21</ele><time>2026-03-07T18:50:07.000Z</time></trkpt>
        <trkpt lat="29.5745126" lon="104.2684404"><ele>419.1</ele><time>2026-03-07T18:50:09.000Z</time></trkpt>
        <trkpt lat="29.5746415" lon="104.2682934"><ele>419</ele><time>2026-03-07T18:50:11.000Z</time></trkpt>
        <trkpt lat="29.5746972" lon="104.2680986"><ele>418.82</ele><time>2026-03-07T18:50:13.000Z</time></trkpt>
        <trkpt lat="29.5747021" lon="104.2678761"><ele>418.84</ele><time>2026-03-07T18:50:15.000Z</time></trkpt>
        <trkpt lat="29.5746632" lon="104.2676249"><ele>418.34</ele><time>2026-03-07T18:50:17.000Z</time></trkpt>
        <trkpt lat="29.5746221" lon="104.2673335"><ele>418.13</ele><time>2026-03-07T18:50:19.000Z</time></trkpt>
        <trkpt lat="29.5746045" lon="104.2670769"><ele>418.15</ele><time>2026-03-07T18:50:21.000Z</time></trkpt>
        <trkpt lat="29.5746225" lon="104.2668574"><ele>417.69</ele><time>2026-03-07T18:50:23.000Z</time></trkpt>
        <trkpt lat="29.5747387" lon="104.2666901"><ele>418</ele><time>2026-03-07T18:50:25.000Z</time></trkpt>
        <trkpt lat="29.5748991" lon="104.2665084"><ele>417.73</ele><time>2026-03-07T18:50:27.000Z</time></trkpt>
        <trkpt lat="29.5750782" lon="104.2663145"><ele>417.64</ele><time>2026-03-07T18:50:29.000Z</time></trkpt>
        <trkpt lat="29.5752564" lon="104.2661088"><ele>417.44</ele><time>2026-03-07T18:50:31.000Z</time></trkpt>
        <trkpt lat="29.5754345" lon="104.2659061"><ele>417.64</ele><time>2026-03-07T18:50:33.000Z</time></trkpt>
        <trkpt lat="29.5756092" lon="104.265714"><ele>417.74</ele><time>2026-03-07T18:50:35.000Z</time></trkpt>
        <trkpt lat="29.5757737" lon="104.2655251"><ele>417.75</ele><time>2026-03-07T18:50:37.000Z</time></trkpt>
        <trkpt lat="29.5759239" lon="104.2653285"><ele>417.41</ele><time>2026-03-07T18:50:39.000Z</time></trkpt>
        <trkpt lat="29.5760507" lon="104.2651197"><ele>417.19</ele><time>2026-03-07T18:50:41.000Z</time></trkpt>
        <trkpt lat="29.5761487" lon="104.2648967"><ele>417.24</ele><time>2026-03-07T18:50:43.000Z</time></trkpt>
        <trkpt lat="29.5762307" lon="104.2646608"><ele>417.22</ele><time>2026-03-07T18:50:45.000Z</time></trkpt>
        <trkpt lat="29.5763051" lon="104.2644138"><ele>417.28</ele><time>2026-03-07T18:50:47.000Z</time></trkpt>
        <trkpt lat="29.5763831" lon="104.2641665"><ele>417.65</ele><time>2026-03-07T18:50:49.000Z</time></trkpt>
        <trkpt lat="29.576468" lon="104.2639263"><ele>417.7</ele><time>2026-03-07T18:50:51.000Z</time></trkpt>
        <trkpt lat="29.576568" lon="104.2636838"><ele>417.51</ele><time>2026-03-07T18:50:53.000Z</time></trkpt>
        <trkpt lat="29.5766758" lon="104.2634683"><ele>417.22</ele><time>2026-03-07T18:50:55.000Z</time></trkpt>
        <trkpt lat="29.5768076" lon="104.2632695"><ele>416.72</ele><time>2026-03-07T18:50:57.000Z</time></trkpt>
        <trkpt lat="29.576958" lon="104.2630682"><ele>416.23</ele><time>2026-03-07T18:50:59.000Z</time></trkpt>
        <trkpt lat="29.5771289" lon="104.2628606"><ele>415.44</ele><time>2026-03-07T18:51:01.000Z</time></trkpt>
        <trkpt lat="29.5773123" lon="104.2626383"><ele>415.3</ele><time>2026-03-07T18:51:03.000Z</time></trkpt>
        <trkpt lat="29.5774982" lon="104.2624068"><ele>415.48</ele><time>2026-03-07T18:51:05.000Z</time></trkpt>
        <trkpt lat="29.577681" lon="104.2621724"><ele>415.43</ele><time>2026-03-07T18:51:07.000Z</time></trkpt>
        <trkpt lat="29.5778508" lon="104.2619543"><ele>415.45</ele><time>2026-03-07T18:51:09.000Z</time></trkpt>
        <trkpt lat="29.5780172" lon="104.2618036"><ele>415.69</ele><time>2026-03-07T18:51:11.000Z</time></trkpt>
        <trkpt lat="29.5781905" lon="104.2617013"><ele>416.49</ele><time>2026-03-07T18:51:13.000Z</time></trkpt>
        <trkpt lat="29.5783708" lon="104.2616163"><ele>416.94</ele><time>2026-03-07T18:51:15.000Z</time></trkpt>
        <trkpt lat="29.5785625" lon="104.2615284"><ele>417.15</ele><time>2026-03-07T18:51:17.000Z</time></trkpt>
        <trkpt lat="29.5787309" lon="104.2614005"><ele>417.66</ele><time>2026-03-07T18:51:19.000Z</time></trkpt>
        <trkpt lat="29.5788745" lon="104.2612375"><ele>417.64</ele><time>2026-03-07T18:51:21.000Z</time></trkpt>
        <trkpt lat="29.5789876" lon="104.2610635"><ele>417.64</ele><time>2026-03-07T18:51:23.000Z</time></trkpt>
        <trkpt lat="29.579111" lon="104.2608745"><ele>416.88</ele><time>2026-03-07T18:51:25.000Z</time></trkpt>
        <trkpt lat="29.5792263" lon="104.2606603"><ele>416.71</ele><time>2026-03-07T18:51:27.000Z</time></trkpt>
        <trkpt lat="29.5793106" lon="104.2604574"><ele>417.02</ele><time>2026-03-07T18:51:29.000Z</time></trkpt>
        <trkpt lat="29.5793388" lon="104.2602556"><ele>416.02</ele><time>2026-03-07T18:51:31.000Z</time></trkpt>
        <trkpt lat="29.57927" lon="104.2601473"><ele>415.22</ele><time>2026-03-07T18:51:33.000Z</time></trkpt>
        <trkpt lat="29.5791399" lon="104.2600886"><ele>414.53</ele><time>2026-03-07T18:51:35.000Z</time></trkpt>
        <trkpt lat="29.5789958" lon="104.260046"><ele>413.75</ele><time>2026-03-07T18:51:37.000Z</time></trkpt>
        <trkpt lat="29.5788706" lon="104.2599947"><ele>414.26</ele><time>2026-03-07T18:51:41.000Z</time></trkpt>
        <trkpt lat="29.5788227" lon="104.2599766"><ele>415.64</ele><time>2026-03-07T18:51:43.000Z</time></trkpt>
        <trkpt lat="29.5789385" lon="104.260037"><ele>416.56</ele><time>2026-03-07T19:03:30.000Z</time></trkpt>
        <trkpt lat="29.57905" lon="104.2600754"><ele>419.04</ele><time>2026-03-07T19:03:40.000Z</time></trkpt>
        <trkpt lat="29.5791061" lon="104.2600922"><ele>420.07</ele><time>2026-03-07T19:03:50.000Z</time></trkpt>
        <trkpt lat="29.5791918" lon="104.2601155"><ele>420.69</ele><time>2026-03-07T19:04:08.000Z</time></trkpt>
        <trkpt lat="29.5792665" lon="104.2600505"><ele>421.28</ele><time>2026-03-07T19:04:18.000Z</time></trkpt>
        <trkpt lat="29.5792913" lon="104.2599279"><ele>421.85</ele><time>2026-03-07T19:04:26.000Z</time></trkpt>
        <trkpt lat="29.5792847" lon="104.2598528"><ele>421.93</ele><time>2026-03-07T19:04:32.000Z</time></trkpt>
        <trkpt lat="29.5793497" lon="104.2598131"><ele>422.49</ele><time>2026-03-07T19:05:57.000Z</time></trkpt>
        <trkpt lat="29.5794232" lon="104.259772"><ele>422.02</ele><time>2026-03-07T19:06:09.000Z</time></trkpt>
        <trkpt lat="29.5795164" lon="104.2597504"><ele>422.12</ele><time>2026-03-07T19:06:19.000Z</time></trkpt>
        <trkpt lat="29.579605" lon="104.2596985"><ele>423.16</ele><time>2026-03-07T19:06:27.000Z</time></trkpt>
        <trkpt lat="29.5797079" lon="104.2596422"><ele>423.59</ele><time>2026-03-07T19:06:35.000Z</time></trkpt>
        <trkpt lat="29.5798163" lon="104.2596143"><ele>423.36</ele><time>2026-03-07T19:06:43.000Z</time></trkpt>
        <trkpt lat="29.5799286" lon="104.2596028"><ele>423</ele><time>2026-03-07T19:07:01.000Z</time></trkpt>
        <trkpt lat="29.5799991" lon="104.2596043"><ele>423.01</ele><time>2026-03-07T19:07:09.000Z</time></trkpt>
        <trkpt lat="29.5800892" lon="104.2596084"><ele>423.16</ele><time>2026-03-07T19:07:23.000Z</time></trkpt>
        <trkpt lat="29.580182" lon="104.2596064"><ele>422.54</ele><time>2026-03-07T19:07:31.000Z</time></trkpt>
        <trkpt lat="29.5802382" lon="104.2595689"><ele>421.77</ele><time>2026-03-07T19:07:43.000Z</time></trkpt>
        <trkpt lat="29.5801752" lon="104.2595878"><ele>422.58</ele><time>2026-03-07T19:07:56.000Z</time></trkpt>
        <trkpt lat="29.5801192" lon="104.259598"><ele>423.69</ele><time>2026-03-07T19:08:00.000Z</time></trkpt>
        <trkpt lat="29.5801662" lon="104.2595828"><ele>424.58</ele><time>2026-03-07T19:08:16.000Z</time></trkpt>
        <trkpt lat="29.5802746" lon="104.259564"><ele>424.27</ele><time>2026-03-07T19:08:24.000Z</time></trkpt>
        <trkpt lat="29.5803834" lon="104.2595108"><ele>423.91</ele><time>2026-03-07T19:08:32.000Z</time></trkpt>
        <trkpt lat="29.5804674" lon="104.259477"><ele>423.25</ele><time>2026-03-07T19:08:42.000Z</time></trkpt>
        <trkpt lat="29.5805686" lon="104.259458"><ele>422.7</ele><time>2026-03-07T19:09:06.000Z</time></trkpt>
        <trkpt lat="29.5806701" lon="104.259416"><ele>421.92</ele><time>2026-03-07T19:09:16.000Z</time></trkpt>
        <trkpt lat="29.5807789" lon="104.2593935"><ele>422.63</ele><time>2026-03-07T19:09:26.000Z</time></trkpt>
        <trkpt lat="29.5808751" lon="104.2593806"><ele>422.64</ele><time>2026-03-07T19:09:38.000Z</time></trkpt>
        <trkpt lat="29.5809624" lon="104.2593442"><ele>422.18</ele><time>2026-03-07T19:09:50.000Z</time></trkpt>
        <trkpt lat="29.5810249" lon="104.2592998"><ele>421.69</ele><time>2026-03-07T19:10:02.000Z</time></trkpt>
        <trkpt lat="29.5809784" lon="104.2593423"><ele>420.55</ele><time>2026-03-07T19:10:12.000Z</time></trkpt>
        <trkpt lat="29.5809535" lon="104.259366"><ele>420.22</ele><time>2026-03-07T19:10:14.000Z</time></trkpt>
        <trkpt lat="29.5810024" lon="104.2593179"><ele>419.82</ele><time>2026-03-07T19:10:26.000Z</time></trkpt>
        <trkpt lat="29.5810917" lon="104.2592564"><ele>419.67</ele><time>2026-03-07T19:10:36.000Z</time></trkpt>
        <trkpt lat="29.581183" lon="104.2591957"><ele>419.41</ele><time>2026-03-07T19:10:48.000Z</time></trkpt>
        <trkpt lat="29.5812823" lon="104.2591534"><ele>419.66</ele><time>2026-03-07T19:11:12.000Z</time></trkpt>
        <trkpt lat="29.5813893" lon="104.2590987"><ele>419.06</ele><time>2026-03-07T19:11:20.000Z</time></trkpt>
        <trkpt lat="29.5814711" lon="104.259034"><ele>418.46</ele><time>2026-03-07T19:11:28.000Z</time></trkpt>
        <trkpt lat="29.5815589" lon="104.2590492"><ele>418.33</ele><time>2026-03-07T19:11:49.000Z</time></trkpt>
        <trkpt lat="29.581661" lon="104.2590567"><ele>418.44</ele><time>2026-03-07T19:11:59.000Z</time></trkpt>
        <trkpt lat="29.5817601" lon="104.259006"><ele>418.48</ele><time>2026-03-07T19:12:09.000Z</time></trkpt>
        <trkpt lat="29.581842" lon="104.2589229"><ele>418.45</ele><time>2026-03-07T19:12:17.000Z</time></trkpt>
        <trkpt lat="29.5818868" lon="104.2588239"><ele>418.6</ele><time>2026-03-07T19:12:29.000Z</time></trkpt>
        <trkpt lat="29.5818904" lon="104.2587603"><ele>418.34</ele><time>2026-03-07T19:12:35.000Z</time></trkpt>
        <trkpt lat="29.5818638" lon="104.2588274"><ele>419.07</ele><time>2026-03-07T19:13:34.000Z</time></trkpt>
        <trkpt lat="29.5818072" lon="104.2589383"><ele>417.34</ele><time>2026-03-07T19:13:42.000Z</time></trkpt>
        <trkpt lat="29.5817239" lon="104.2590417"><ele>417.94</ele><time>2026-03-07T19:13:50.000Z</time></trkpt>
        <trkpt lat="29.5816137" lon="104.2590902"><ele>418.62</ele><time>2026-03-07T19:14:00.000Z</time></trkpt>
        <trkpt lat="29.5815007" lon="104.2591002"><ele>418.95</ele><time>2026-03-07T19:14:08.000Z</time></trkpt>
        <trkpt lat="29.5813916" lon="104.2591256"><ele>419.43</ele><time>2026-03-07T19:14:18.000Z</time></trkpt>
        <trkpt lat="29.5813457" lon="104.2591373"><ele>419.69</ele><time>2026-03-07T19:14:24.000Z</time></trkpt>
        <trkpt lat="29.5812777" lon="104.2591813"><ele>420.05</ele><time>2026-03-07T19:14:36.000Z</time></trkpt>
        <trkpt lat="29.5811915" lon="104.2592247"><ele>419.74</ele><time>2026-03-07T19:14:44.000Z</time></trkpt>
        <trkpt lat="29.5811087" lon="104.2592763"><ele>419.71</ele><time>2026-03-07T19:14:52.000Z</time></trkpt>
        <trkpt lat="29.5810161" lon="104.259322"><ele>419.39</ele><time>2026-03-07T19:15:00.000Z</time></trkpt>
        <trkpt lat="29.5809279" lon="104.2593609"><ele>419.39</ele><time>2026-03-07T19:15:08.000Z</time></trkpt>
        <trkpt lat="29.5808564" lon="104.2594318"><ele>419.87</ele><time>2026-03-07T19:15:18.000Z</time></trkpt>
        <trkpt lat="29.5807683" lon="104.2594671"><ele>419.97</ele><time>2026-03-07T19:15:26.000Z</time></trkpt>
        <trkpt lat="29.5806704" lon="104.2594964"><ele>420.19</ele><time>2026-03-07T19:15:34.000Z</time></trkpt>
        <trkpt lat="29.5805738" lon="104.2595223"><ele>420.65</ele><time>2026-03-07T19:15:42.000Z</time></trkpt>
        <trkpt lat="29.5804769" lon="104.2595362"><ele>421.02</ele><time>2026-03-07T19:15:50.000Z</time></trkpt>
        <trkpt lat="29.5804097" lon="104.2595354"><ele>421.45</ele><time>2026-03-07T19:15:56.000Z</time></trkpt>
        <trkpt lat="29.5803284" lon="104.2595803"><ele>422.12</ele><time>2026-03-07T19:16:22.000Z</time></trkpt>
        <trkpt lat="29.5802362" lon="104.2596195"><ele>422.32</ele><time>2026-03-07T19:16:30.000Z</time></trkpt>
        <trkpt lat="29.580137" lon="104.2596451"><ele>422.95</ele><time>2026-03-07T19:16:38.000Z</time></trkpt>
        <trkpt lat="29.5800394" lon="104.2596605"><ele>423.38</ele><time>2026-03-07T19:16:46.000Z</time></trkpt>
        <trkpt lat="29.5799445" lon="104.2596587"><ele>423.96</ele><time>2026-03-07T19:16:54.000Z</time></trkpt>
        <trkpt lat="29.5798382" lon="104.259633"><ele>423.21</ele><time>2026-03-07T19:17:02.000Z</time></trkpt>
        <trkpt lat="29.5797384" lon="104.2596278"><ele>423.7</ele><time>2026-03-07T19:17:08.000Z</time></trkpt>
        <trkpt lat="29.5796454" lon="104.2596649"><ele>423.66</ele><time>2026-03-07T19:17:14.000Z</time></trkpt>
        <trkpt lat="29.5795795" lon="104.2597089"><ele>423.84</ele><time>2026-03-07T19:17:20.000Z</time></trkpt>
        <trkpt lat="29.5794973" lon="104.2597766"><ele>424.07</ele><time>2026-03-07T19:17:36.000Z</time></trkpt>
        <trkpt lat="29.5793943" lon="104.2598147"><ele>424.77</ele><time>2026-03-07T19:17:44.000Z</time></trkpt>
        <trkpt lat="29.5792952" lon="104.2598764"><ele>424.68</ele><time>2026-03-07T19:17:52.000Z</time></trkpt>
        <trkpt lat="29.5792447" lon="104.259987"><ele>423.56</ele><time>2026-03-07T19:18:00.000Z</time></trkpt>
        <trkpt lat="29.5792214" lon="104.2600986"><ele>422.25</ele><time>2026-03-07T19:18:06.000Z</time></trkpt>
        <trkpt lat="29.5791363" lon="104.2601485"><ele>421.01</ele><time>2026-03-07T19:18:14.000Z</time></trkpt>
        <trkpt lat="29.5790426" lon="104.260117"><ele>420.7</ele><time>2026-03-07T19:18:20.000Z</time></trkpt>
        <trkpt lat="29.5790015" lon="104.2600193"><ele>421.1</ele><time>2026-03-07T19:18:26.000Z</time></trkpt>
        <trkpt lat="29.5790121" lon="104.2599163"><ele>422.05</ele><time>2026-03-07T19:18:34.000Z</time></trkpt>
        <trkpt lat="29.5789958" lon="104.2599562"><ele>421.99</ele><time>2026-03-07T19:19:16.000Z</time></trkpt>
        <trkpt lat="29.5789211" lon="104.2599955"><ele>421.82</ele><time>2026-03-07T19:19:24.000Z</time></trkpt>
        <trkpt lat="29.5788226" lon="104.2600005"><ele>421.94</ele><time>2026-03-07T19:19:32.000Z</time></trkpt>
        <trkpt lat="29.5787167" lon="104.2599652"><ele>422.2</ele><time>2026-03-07T19:19:40.000Z</time></trkpt>
        <trkpt lat="29.5786389" lon="104.2598959"><ele>422.24</ele><time>2026-03-07T19:19:48.000Z</time></trkpt>
        <trkpt lat="29.5786954" lon="104.2599229"><ele>422.09</ele><time>2026-03-07T19:20:22.000Z</time></trkpt>
        <trkpt lat="29.5787272" lon="104.2600343"><ele>421.57</ele><time>2026-03-07T19:20:32.000Z</time></trkpt>
        <trkpt lat="29.5787414" lon="104.260098"><ele>422.05</ele><time>2026-03-07T19:20:36.000Z</time></trkpt>
        <trkpt lat="29.5787755" lon="104.2602072"><ele>422.25</ele><time>2026-03-07T19:22:20.000Z</time></trkpt>
        <trkpt lat="29.578775" lon="104.2602663"><ele>419.91</ele><time>2026-03-07T19:22:28.000Z</time></trkpt>
        <trkpt lat="29.5787788" lon="104.2603702"><ele>417.78</ele><time>2026-03-07T19:23:00.000Z</time></trkpt>
        <trkpt lat="29.57873" lon="104.2604604"><ele>417.53</ele><time>2026-03-07T19:23:18.000Z</time></trkpt>
        <trkpt lat="29.5786989" lon="104.260561"><ele>416.83</ele><time>2026-03-07T19:23:28.000Z</time></trkpt>
        <trkpt lat="29.5786932" lon="104.260614"><ele>416.73</ele><time>2026-03-07T19:23:32.000Z</time></trkpt>
        <trkpt lat="29.5787023" lon="104.2605405"><ele>416.64</ele><time>2026-03-07T19:23:46.000Z</time></trkpt>
        <trkpt lat="29.5787279" lon="104.2604249"><ele>416.06</ele><time>2026-03-07T19:23:54.000Z</time></trkpt>
        <trkpt lat="29.5787454" lon="104.2602854"><ele>415.98</ele><time>2026-03-07T19:24:04.000Z</time></trkpt>
        <trkpt lat="29.5787483" lon="104.2601552"><ele>416.97</ele><time>2026-03-07T19:24:12.000Z</time></trkpt>
        <trkpt lat="29.5787675" lon="104.2600289"><ele>417.42</ele><time>2026-03-07T19:24:22.000Z</time></trkpt>
        <trkpt lat="29.5788339" lon="104.2599671"><ele>418.2</ele><time>2026-03-07T19:24:36.000Z</time></trkpt>
        <trkpt lat="29.5787732" lon="104.2599458"><ele>418.27</ele><time>2026-03-07T19:24:59.000Z</time></trkpt>
        <trkpt lat="29.578614" lon="104.2598874"><ele>419.03</ele><time>2026-03-07T19:25:03.000Z</time></trkpt>
        <trkpt lat="29.5782423" lon="104.2595192"><ele>420.15</ele><time>2026-03-07T19:25:11.000Z</time></trkpt>
        <trkpt lat="29.5780436" lon="104.2592845"><ele>420.99</ele><time>2026-03-07T19:25:13.000Z</time></trkpt>
        <trkpt lat="29.5779395" lon="104.259108"><ele>421.03</ele><time>2026-03-07T19:25:15.000Z</time></trkpt>
        <trkpt lat="29.5778793" lon="104.2589417"><ele>420.72</ele><time>2026-03-07T19:25:17.000Z</time></trkpt>
        <trkpt lat="29.5778419" lon="104.2587836"><ele>421.18</ele><time>2026-03-07T19:25:19.000Z</time></trkpt>
        <trkpt lat="29.577807" lon="104.2586472"><ele>422.38</ele><time>2026-03-07T19:25:21.000Z</time></trkpt>
        <trkpt lat="29.5777798" lon="104.2585328"><ele>423.63</ele><time>2026-03-07T19:25:23.000Z</time></trkpt>
        <trkpt lat="29.5777622" lon="104.2584028"><ele>425.08</ele><time>2026-03-07T19:25:25.000Z</time></trkpt>
        <trkpt lat="29.5777644" lon="104.2582671"><ele>426.46</ele><time>2026-03-07T19:25:27.000Z</time></trkpt>
        <trkpt lat="29.5777731" lon="104.2581262"><ele>426.84</ele><time>2026-03-07T19:25:29.000Z</time></trkpt>
        <trkpt lat="29.577762" lon="104.2579735"><ele>427.16</ele><time>2026-03-07T19:25:31.000Z</time></trkpt>
        <trkpt lat="29.5777162" lon="104.2578192"><ele>427.38</ele><time>2026-03-07T19:25:33.000Z</time></trkpt>
        <trkpt lat="29.577637" lon="104.2576691"><ele>427.38</ele><time>2026-03-07T19:25:35.000Z</time></trkpt>
        <trkpt lat="29.5775292" lon="104.2575304"><ele>427.33</ele><time>2026-03-07T19:25:37.000Z</time></trkpt>
        <trkpt lat="29.5774222" lon="104.2573977"><ele>426.66</ele><time>2026-03-07T19:25:39.000Z</time></trkpt>
        <trkpt lat="29.5773455" lon="104.2572586"><ele>426.06</ele><time>2026-03-07T19:25:41.000Z</time></trkpt>
        <trkpt lat="29.5773075" lon="104.2571259"><ele>425.43</ele><time>2026-03-07T19:25:43.000Z</time></trkpt>
        <trkpt lat="29.5772984" lon="104.2570132"><ele>425.07</ele><time>2026-03-07T19:25:45.000Z</time></trkpt>
        <trkpt lat="29.5772963" lon="104.2568397"><ele>424.82</ele><time>2026-03-07T19:25:49.000Z</time></trkpt>
        <trkpt lat="29.5772963" lon="104.2567304"><ele>424.49</ele><time>2026-03-07T19:25:53.000Z</time></trkpt>
        <trkpt lat="29.5773576" lon="104.2567483"><ele>424.02</ele><time>2026-03-07T19:26:09.000Z</time></trkpt>
        <trkpt lat="29.577453" lon="104.2567619"><ele>424.79</ele><time>2026-03-07T19:26:15.000Z</time></trkpt>
        <trkpt lat="29.5775672" lon="104.2567492"><ele>423.98</ele><time>2026-03-07T19:26:23.000Z</time></trkpt>
        <trkpt lat="29.5776719" lon="104.2567345"><ele>423.33</ele><time>2026-03-07T19:26:31.000Z</time></trkpt>
        <trkpt lat="29.5777724" lon="104.2567148"><ele>422.81</ele><time>2026-03-07T19:27:09.000Z</time></trkpt>
        <trkpt lat="29.5778811" lon="104.2566779"><ele>422.62</ele><time>2026-03-07T19:27:19.000Z</time></trkpt>
        <trkpt lat="29.5777906" lon="104.256716"><ele>422.11</ele><time>2026-03-07T19:28:34.000Z</time></trkpt>
        <trkpt lat="29.5776986" lon="104.2567402"><ele>423.51</ele><time>2026-03-07T19:28:40.000Z</time></trkpt>
        <trkpt lat="29.5775893" lon="104.2567717"><ele>424.36</ele><time>2026-03-07T19:28:48.000Z</time></trkpt>
        <trkpt lat="29.5775152" lon="104.2567527"><ele>424.77</ele><time>2026-03-07T19:28:58.000Z</time></trkpt>
        <trkpt lat="29.5774388" lon="104.2567986"><ele>425</ele><time>2026-03-07T19:29:22.000Z</time></trkpt>
        <trkpt lat="29.5773407" lon="104.256797"><ele>424.64</ele><time>2026-03-07T19:29:30.000Z</time></trkpt>
        <trkpt lat="29.5772964" lon="104.2567541"><ele>424.38</ele><time>2026-03-07T19:29:39.000Z</time></trkpt>
        <trkpt lat="29.5772299" lon="104.2565549"><ele>424.91</ele><time>2026-03-07T19:30:13.000Z</time></trkpt>
        <trkpt lat="29.5771986" lon="104.2563852"><ele>424.78</ele><time>2026-03-07T19:30:15.000Z</time></trkpt>
        <trkpt lat="29.5771575" lon="104.2562532"><ele>424.64</ele><time>2026-03-07T19:30:17.000Z</time></trkpt>
        <trkpt lat="29.5770917" lon="104.2561668"><ele>425.17</ele><time>2026-03-07T19:30:19.000Z</time></trkpt>
        <trkpt lat="29.5770073" lon="104.2561147"><ele>425.74</ele><time>2026-03-07T19:30:21.000Z</time></trkpt>
        <trkpt lat="29.5769094" lon="104.256046"><ele>425.47</ele><time>2026-03-07T19:30:23.000Z</time></trkpt>
        <trkpt lat="29.5767996" lon="104.2559855"><ele>424.85</ele><time>2026-03-07T19:30:25.000Z</time></trkpt>
        <trkpt lat="29.5767022" lon="104.2559147"><ele>425.71</ele><time>2026-03-07T19:30:27.000Z</time></trkpt>
        <trkpt lat="29.5766017" lon="104.2558011"><ele>425.9</ele><time>2026-03-07T19:30:29.000Z</time></trkpt>
        <trkpt lat="29.5764985" lon="104.2556777"><ele>425.21</ele><time>2026-03-07T19:30:31.000Z</time></trkpt>
        <trkpt lat="29.576388" lon="104.2555724"><ele>425.3</ele><time>2026-03-07T19:30:33.000Z</time></trkpt>
        <trkpt lat="29.5763029" lon="104.2554566"><ele>425.2</ele><time>2026-03-07T19:30:35.000Z</time></trkpt>
        <trkpt lat="29.5762339" lon="104.2553394"><ele>425.96</ele><time>2026-03-07T19:30:37.000Z</time></trkpt>
        <trkpt lat="29.5761384" lon="104.2551977"><ele>425.67</ele><time>2026-03-07T19:30:39.000Z</time></trkpt>
        <trkpt lat="29.5760304" lon="104.2550694"><ele>425.5</ele><time>2026-03-07T19:30:41.000Z</time></trkpt>
        <trkpt lat="29.5759312" lon="104.2549568"><ele>425.38</ele><time>2026-03-07T19:30:43.000Z</time></trkpt>
        <trkpt lat="29.5758183" lon="104.2548908"><ele>425.31</ele><time>2026-03-07T19:30:45.000Z</time></trkpt>
        <trkpt lat="29.5756858" lon="104.2548825"><ele>426.36</ele><time>2026-03-07T19:30:47.000Z</time></trkpt>
        <trkpt lat="29.5755534" lon="104.2548869"><ele>427.83</ele><time>2026-03-07T19:30:49.000Z</time></trkpt>
        <trkpt lat="29.5754233" lon="104.2548473"><ele>429.13</ele><time>2026-03-07T19:30:51.000Z</time></trkpt>
        <trkpt lat="29.5752999" lon="104.254775"><ele>430.4</ele><time>2026-03-07T19:30:53.000Z</time></trkpt>
        <trkpt lat="29.5751734" lon="104.2547031"><ele>430.98</ele><time>2026-03-07T19:30:55.000Z</time></trkpt>
        <trkpt lat="29.5750453" lon="104.2546793"><ele>432</ele><time>2026-03-07T19:30:57.000Z</time></trkpt>
        <trkpt lat="29.5749131" lon="104.2547296"><ele>432.5</ele><time>2026-03-07T19:30:59.000Z</time></trkpt>
        <trkpt lat="29.5747807" lon="104.2548038"><ele>432.8</ele><time>2026-03-07T19:31:01.000Z</time></trkpt>
        <trkpt lat="29.5746408" lon="104.2548362"><ele>432.98</ele><time>2026-03-07T19:31:03.000Z</time></trkpt>
        <trkpt lat="29.5744968" lon="104.2548031"><ele>433.14</ele><time>2026-03-07T19:31:05.000Z</time></trkpt>
        <trkpt lat="29.5743897" lon="104.2547319"><ele>433.15</ele><time>2026-03-07T19:31:07.000Z</time></trkpt>
        <trkpt lat="29.5743415" lon="104.2545776"><ele>433.31</ele><time>2026-03-07T19:31:09.000Z</time></trkpt>
        <trkpt lat="29.5742939" lon="104.2543915"><ele>434</ele><time>2026-03-07T19:31:11.000Z</time></trkpt>
        <trkpt lat="29.5742573" lon="104.2542134"><ele>433.92</ele><time>2026-03-07T19:31:13.000Z</time></trkpt>
        <trkpt lat="29.574216" lon="104.2540375"><ele>433.87</ele><time>2026-03-07T19:31:15.000Z</time></trkpt>
        <trkpt lat="29.5741837" lon="104.2539006"><ele>433.81</ele><time>2026-03-07T19:31:17.000Z</time></trkpt>
        <trkpt lat="29.5741595" lon="104.2537587"><ele>434.02</ele><time>2026-03-07T19:31:19.000Z</time></trkpt>
        <trkpt lat="29.5741485" lon="104.253605"><ele>433.97</ele><time>2026-03-07T19:31:21.000Z</time></trkpt>
        <trkpt lat="29.5741472" lon="104.2534304"><ele>434.15</ele><time>2026-03-07T19:31:23.000Z</time></trkpt>
        <trkpt lat="29.574148" lon="104.2532572"><ele>434.61</ele><time>2026-03-07T19:31:25.000Z</time></trkpt>
        <trkpt lat="29.5741466" lon="104.2531004"><ele>434.57</ele><time>2026-03-07T19:31:27.000Z</time></trkpt>
        <trkpt lat="29.5741821" lon="104.2529689"><ele>434.69</ele><time>2026-03-07T19:31:29.000Z</time></trkpt>
        <trkpt lat="29.5742724" lon="104.2528687"><ele>435.72</ele><time>2026-03-07T19:31:31.000Z</time></trkpt>
        <trkpt lat="29.5743767" lon="104.2527775"><ele>435.4</ele><time>2026-03-07T19:31:33.000Z</time></trkpt>
        <trkpt lat="29.5744466" lon="104.2526568"><ele>434.62</ele><time>2026-03-07T19:31:35.000Z</time></trkpt>
        <trkpt lat="29.5744702" lon="104.2525281"><ele>434.03</ele><time>2026-03-07T19:31:37.000Z</time></trkpt>
        <trkpt lat="29.5744983" lon="104.2524066"><ele>433.62</ele><time>2026-03-07T19:31:39.000Z</time></trkpt>
        <trkpt lat="29.5745632" lon="104.252307"><ele>433.67</ele><time>2026-03-07T19:31:41.000Z</time></trkpt>
        <trkpt lat="29.5746611" lon="104.2522056"><ele>433.91</ele><time>2026-03-07T19:31:43.000Z</time></trkpt>
        <trkpt lat="29.574778" lon="104.252111"><ele>434.95</ele><time>2026-03-07T19:31:45.000Z</time></trkpt>
        <trkpt lat="29.5748918" lon="104.2520189"><ele>435.61</ele><time>2026-03-07T19:31:47.000Z</time></trkpt>
        <trkpt lat="29.5750164" lon="104.2519372"><ele>432.94</ele><time>2026-03-07T19:31:49.000Z</time></trkpt>
        <trkpt lat="29.575122" lon="104.2518338"><ele>432.06</ele><time>2026-03-07T19:31:51.000Z</time></trkpt>
        <trkpt lat="29.575209" lon="104.2517414"><ele>431.95</ele><time>2026-03-07T19:31:53.000Z</time></trkpt>
        <trkpt lat="29.5752995" lon="104.2516243"><ele>431.82</ele><time>2026-03-07T19:31:55.000Z</time></trkpt>
        <trkpt lat="29.5753837" lon="104.2514972"><ele>432.11</ele><time>2026-03-07T19:31:57.000Z</time></trkpt>
        <trkpt lat="29.57547" lon="104.2513991"><ele>432.73</ele><time>2026-03-07T19:31:59.000Z</time></trkpt>
        <trkpt lat="29.575576" lon="104.2513371"><ele>433.36</ele><time>2026-03-07T19:32:01.000Z</time></trkpt>
        <trkpt lat="29.5756586" lon="104.2512397"><ele>433.35</ele><time>2026-03-07T19:32:05.000Z</time></trkpt>
        <trkpt lat="29.5756787" lon="104.2511145"><ele>432.11</ele><time>2026-03-07T19:32:07.000Z</time></trkpt>
        <trkpt lat="29.5757197" lon="104.2509441"><ele>430.83</ele><time>2026-03-07T19:32:09.000Z</time></trkpt>
        <trkpt lat="29.5757754" lon="104.2507796"><ele>429.3</ele><time>2026-03-07T19:32:11.000Z</time></trkpt>
        <trkpt lat="29.5758477" lon="104.2505716"><ele>427.96</ele><time>2026-03-07T19:32:13.000Z</time></trkpt>
        <trkpt lat="29.5759218" lon="104.2503932"><ele>426.76</ele><time>2026-03-07T19:32:15.000Z</time></trkpt>
        <trkpt lat="29.5760244" lon="104.2502489"><ele>425.76</ele><time>2026-03-07T19:32:17.000Z</time></trkpt>
        <trkpt lat="29.5761454" lon="104.2501271"><ele>425.88</ele><time>2026-03-07T19:32:19.000Z</time></trkpt>
        <trkpt lat="29.5762617" lon="104.2500458"><ele>425.7</ele><time>2026-03-07T19:32:21.000Z</time></trkpt>
        <trkpt lat="29.5763985" lon="104.2500065"><ele>425.54</ele><time>2026-03-07T19:32:23.000Z</time></trkpt>
        <trkpt lat="29.5765388" lon="104.2499849"><ele>425.56</ele><time>2026-03-07T19:32:25.000Z</time></trkpt>
        <trkpt lat="29.5766735" lon="104.2499484"><ele>425.51</ele><time>2026-03-07T19:32:27.000Z</time></trkpt>
        <trkpt lat="29.5767759" lon="104.2498803"><ele>425.68</ele><time>2026-03-07T19:32:29.000Z</time></trkpt>
        <trkpt lat="29.5768259" lon="104.2497435"><ele>424.86</ele><time>2026-03-07T19:32:31.000Z</time></trkpt>
        <trkpt lat="29.5769155" lon="104.2495693"><ele>423.65</ele><time>2026-03-07T19:32:33.000Z</time></trkpt>
        <trkpt lat="29.5770049" lon="104.249438"><ele>420.98</ele><time>2026-03-07T19:32:35.000Z</time></trkpt>
        <trkpt lat="29.577142" lon="104.249402"><ele>419.14</ele><time>2026-03-07T19:32:37.000Z</time></trkpt>
        <trkpt lat="29.5772964" lon="104.2494191"><ele>417.25</ele><time>2026-03-07T19:32:39.000Z</time></trkpt>
        <trkpt lat="29.5774384" lon="104.2494457"><ele>415.96</ele><time>2026-03-07T19:32:41.000Z</time></trkpt>
        <trkpt lat="29.5775923" lon="104.2494322"><ele>414.47</ele><time>2026-03-07T19:32:45.000Z</time></trkpt>
        <trkpt lat="29.5776976" lon="104.2493341"><ele>412.6</ele><time>2026-03-07T19:32:47.000Z</time></trkpt>
        <trkpt lat="29.5778004" lon="104.2491866"><ele>411.5</ele><time>2026-03-07T19:32:49.000Z</time></trkpt>
        <trkpt lat="29.5778921" lon="104.2490767"><ele>412.41</ele><time>2026-03-07T19:32:51.000Z</time></trkpt>
        <trkpt lat="29.5779843" lon="104.2490116"><ele>412.95</ele><time>2026-03-07T19:32:53.000Z</time></trkpt>
        <trkpt lat="29.5780675" lon="104.2489619"><ele>412.93</ele><time>2026-03-07T19:32:55.000Z</time></trkpt>
        <trkpt lat="29.5781517" lon="104.2489199"><ele>412.99</ele><time>2026-03-07T19:32:59.000Z</time></trkpt>
        <trkpt lat="29.5780986" lon="104.2488727"><ele>413.2</ele><time>2026-03-07T19:33:23.000Z</time></trkpt>
        <trkpt lat="29.5779925" lon="104.2488335"><ele>418.49</ele><time>2026-03-07T19:33:31.000Z</time></trkpt>
        <trkpt lat="29.5779168" lon="104.2487573"><ele>419.46</ele><time>2026-03-07T19:33:39.000Z</time></trkpt>
        <trkpt lat="29.5778369" lon="104.2486619"><ele>420.6</ele><time>2026-03-07T19:33:53.000Z</time></trkpt>
        <trkpt lat="29.5777988" lon="104.2486239"><ele>421.97</ele><time>2026-03-07T19:33:57.000Z</time></trkpt>
        <trkpt lat="29.5777452" lon="104.2485339"><ele>422.06</ele><time>2026-03-07T19:36:14.000Z</time></trkpt>
        <trkpt lat="29.5776638" lon="104.2484491"><ele>422.09</ele><time>2026-03-07T19:36:24.000Z</time></trkpt>
        <trkpt lat="29.5775922" lon="104.2483763"><ele>421.35</ele><time>2026-03-07T19:36:32.000Z</time></trkpt>
        <trkpt lat="29.5775296" lon="104.2482842"><ele>420.57</ele><time>2026-03-07T19:36:40.000Z</time></trkpt>
        <trkpt lat="29.5775142" lon="104.248164"><ele>419.7</ele><time>2026-03-07T19:36:48.000Z</time></trkpt>
        <trkpt lat="29.5775836" lon="104.2481593"><ele>419.05</ele><time>2026-03-07T19:37:00.000Z</time></trkpt>
        <trkpt lat="29.5776274" lon="104.2481551"><ele>419.12</ele><time>2026-03-07T19:37:04.000Z</time></trkpt>
        <trkpt lat="29.5775484" lon="104.2481648"><ele>420.2</ele><time>2026-03-07T19:38:11.000Z</time></trkpt>
        <trkpt lat="29.5775698" lon="104.2480614"><ele>418.77</ele><time>2026-03-07T19:38:19.000Z</time></trkpt>
        <trkpt lat="29.5776501" lon="104.2480124"><ele>418.55</ele><time>2026-03-07T19:38:27.000Z</time></trkpt>
        <trkpt lat="29.5777455" lon="104.2479558"><ele>418.62</ele><time>2026-03-07T19:38:35.000Z</time></trkpt>
        <trkpt lat="29.5778317" lon="104.2478892"><ele>419.1</ele><time>2026-03-07T19:38:43.000Z</time></trkpt>
        <trkpt lat="29.5779108" lon="104.2478205"><ele>419.41</ele><time>2026-03-07T19:38:51.000Z</time></trkpt>
        <trkpt lat="29.5779903" lon="104.2477458"><ele>419.07</ele><time>2026-03-07T19:38:59.000Z</time></trkpt>
        <trkpt lat="29.5780644" lon="104.247676"><ele>418.62</ele><time>2026-03-07T19:39:07.000Z</time></trkpt>
        <trkpt lat="29.5780953" lon="104.2476473"><ele>418.31</ele><time>2026-03-07T19:39:11.000Z</time></trkpt>
        <trkpt lat="29.5781284" lon="104.247562"><ele>418.11</ele><time>2026-03-07T19:39:29.000Z</time></trkpt>
        <trkpt lat="29.5782039" lon="104.2475034"><ele>418.29</ele><time>2026-03-07T19:39:37.000Z</time></trkpt>
        <trkpt lat="29.578308" lon="104.2474705"><ele>418.49</ele><time>2026-03-07T19:39:45.000Z</time></trkpt>
        <trkpt lat="29.5784063" lon="104.247417"><ele>418.11</ele><time>2026-03-07T19:39:53.000Z</time></trkpt>
        <trkpt lat="29.578478" lon="104.247332"><ele>417.95</ele><time>2026-03-07T19:40:01.000Z</time></trkpt>
        <trkpt lat="29.5785202" lon="104.2472901"><ele>417.71</ele><time>2026-03-07T19:40:07.000Z</time></trkpt>
        <trkpt lat="29.5785898" lon="104.2472427"><ele>417.61</ele><time>2026-03-07T19:40:23.000Z</time></trkpt>
        <trkpt lat="29.578543" lon="104.2472806"><ele>417.29</ele><time>2026-03-07T19:41:07.000Z</time></trkpt>
        <trkpt lat="29.5784571" lon="104.24735"><ele>417.07</ele><time>2026-03-07T19:41:15.000Z</time></trkpt>
        <trkpt lat="29.5783811" lon="104.2474482"><ele>417.07</ele><time>2026-03-07T19:41:25.000Z</time></trkpt>
        <trkpt lat="29.5782771" lon="104.2474957"><ele>417.43</ele><time>2026-03-07T19:41:35.000Z</time></trkpt>
        <trkpt lat="29.5781614" lon="104.2475425"><ele>418.37</ele><time>2026-03-07T19:41:45.000Z</time></trkpt>
        <trkpt lat="29.5780739" lon="104.2476085"><ele>417.94</ele><time>2026-03-07T19:41:53.000Z</time></trkpt>
        <trkpt lat="29.5780739" lon="104.2476085"><ele>417.94</ele><time>2026-03-07T19:41:57.000Z</time></trkpt>
      </trkseg>
  </trk>
</gpx>